Time;durP1;ratioP1;P1;durP2;ratioP2;P2;SDS_P1;SDS_P2;PMS_P1;PMS_P2;Temp;Humidity;BMP_temperature;BMP_pressure;BME280_temperature;BME280_humidity;BME280_pressure;Samples;Min_cycle;Max_cycle;Signal;HPM_P1;HPM_P2
2023/04/11 00:01:48;;;;;;;34.08;24.55;;;;;;;-146.26;100.00;59860.63;4988261;28;20565;-70
2023/04/11 00:04:15;;;;;;;29.60;22.40;;;;;;;-146.26;100.00;59860.63;4980841;28;20443;-70
2023/04/11 00:06:41;;;;;;;30.65;23.23;;;;;;;-146.26;100.00;59860.63;4982435;28;20498;-71
2023/04/11 00:09:08;;;;;;;27.88;23.52;;;;;;;-146.26;100.00;59860.63;4982460;28;20067;-73
2023/04/11 00:11:33;;;;;;;32.78;23.90;;;;;;;-146.26;100.00;59860.63;4987931;28;20054;-71
2023/04/11 00:13:58;;;;;;;30.65;22.92;;;;;;;-146.26;100.00;59860.63;4988226;28;20562;-70
2023/04/11 00:16:25;;;;;;;36.95;23.77;;;;;;;-146.26;100.00;59860.63;4987887;28;20026;-70
2023/04/11 00:18:51;;;;;;;35.13;25.80;;;;;;;-146.26;100.00;59860.63;4987720;28;20129;-70
2023/04/11 00:21:16;;;;;;;30.25;24.15;;;;;;;-146.26;100.00;59860.63;4981907;28;20125;-72
2023/04/11 00:23:42;;;;;;;39.38;25.65;;;;;;;-146.26;100.00;59860.63;4986405;28;20049;-72
2023/04/11 00:26:07;;;;;;;31.13;24.88;;;;;;;-146.26;100.00;59860.63;4988861;28;20073;-72
2023/04/11 00:28:33;;;;;;;33.22;25.27;;;;;;;-146.26;100.00;59860.63;4993214;28;20057;-71
2023/04/11 00:30:59;;;;;;;34.55;24.10;;;;;;;-146.26;100.00;59860.63;4993028;28;20041;-73
2023/04/11 00:33:25;;;;;;;31.42;23.58;;;;;;;-146.26;100.00;59860.63;4989800;28;20740;-74
2023/04/11 00:35:50;;;;;;;30.35;23.50;;;;;;;-146.26;100.00;59860.63;4987266;28;20646;-73
2023/04/11 00:38:16;;;;;;;31.02;22.35;;;;;;;-146.26;100.00;59860.63;4985684;28;20050;-73
2023/04/11 00:40:42;;;;;;;31.00;22.15;;;;;;;-146.26;100.00;59860.63;4989129;28;20061;-73
2023/04/11 00:43:08;;;;;;;30.90;22.98;;;;;;;-146.26;100.00;59860.63;4987975;28;20069;-73
2023/04/11 00:45:34;;;;;;;32.08;23.23;;;;;;;-146.26;100.00;59860.63;4984525;28;20042;-72
2023/04/11 00:48:00;;;;;;;31.52;22.25;;;;;;;-146.26;100.00;59860.63;4985317;28;20050;-72
2023/04/11 00:50:26;;;;;;;32.28;24.45;;;;;;;-146.26;100.00;59860.63;4975137;28;20045;-70
2023/04/11 00:52:54;;;;;;;30.42;22.65;;;;;;;-146.26;100.00;59860.63;4982804;28;20216;-73
2023/04/11 00:55:20;;;;;;;27.92;22.42;;;;;;;-146.26;100.00;59860.63;4988555;28;20383;-73
2023/04/11 00:57:46;;;;;;;32.80;23.73;;;;;;;-146.26;100.00;59860.63;4987560;28;20050;-73
2023/04/11 01:00:13;;;;;;;31.70;23.13;;;;;;;-146.26;100.00;59860.63;4985901;28;20799;-70
2023/04/11 01:02:41;;;;;;;30.33;22.42;;;;;;;-146.26;100.00;59860.63;4982217;28;20141;-73
2023/04/11 01:05:12;;;;;;;30.05;22.25;;;;;;;-146.26;100.00;59860.63;4984793;28;20058;-72
2023/04/11 01:07:42;;;;;;;30.48;23.08;;;;;;;-146.26;100.00;59860.63;4983624;28;20032;-72
2023/04/11 01:10:09;;;;;;;31.38;24.08;;;;;;;-146.26;100.00;59860.63;4989618;28;20068;-73
2023/04/11 01:12:35;;;;;;;26.23;20.70;;;;;;;-146.26;100.00;59860.63;4986864;28;20061;-73
2023/04/11 01:15:02;;;;;;;26.17;19.58;;;;;;;-146.26;100.00;59860.63;4986689;28;20060;-72
2023/04/11 01:17:27;;;;;;;29.77;21.13;;;;;;;-146.26;100.00;59860.63;4984657;28;20038;-75
2023/04/11 01:19:53;;;;;;;29.25;21.02;;;;;;;-146.26;100.00;59860.63;4985339;28;20510;-73
2023/04/11 01:22:21;;;;;;;25.55;19.30;;;;;;;-146.26;100.00;59860.63;4987901;28;20038;-71
2023/04/11 01:24:47;;;;;;;31.08;20.98;;;;;;;-146.26;100.00;59860.63;4983747;28;20081;-72
2023/04/11 01:27:13;;;;;;;24.80;19.75;;;;;;;-146.26;100.00;59860.63;4987098;28;20037;-71
2023/04/11 01:29:39;;;;;;;26.90;20.52;;;;;;;-146.26;100.00;59860.63;4987208;28;20121;-72
2023/04/11 01:32:05;;;;;;;25.17;20.33;;;;;;;-146.26;100.00;59860.63;4985939;28;20073;-73
2023/04/11 01:34:32;;;;;;;25.70;19.25;;;;;;;-146.26;100.00;59860.63;4987271;28;20061;-73
2023/04/11 01:36:58;;;;;;;28.75;21.17;;;;;;;-146.26;100.00;59860.63;4987626;28;20106;-74
2023/04/11 01:39:23;;;;;;;26.08;18.33;;;;;;;-146.26;100.00;59860.63;4981565;28;20042;-72
2023/04/11 01:41:50;;;;;;;27.50;19.77;;;;;;;-146.26;100.00;59860.63;4986699;28;20054;-70
2023/04/11 01:44:17;;;;;;;28.20;17.88;;;;;;;-146.26;100.00;59860.63;4986649;28;20510;-70
2023/04/11 01:46:43;;;;;;;24.33;17.63;;;;;;;-146.26;100.00;59860.63;4978849;28;20068;-72
2023/04/11 01:49:09;;;;;;;21.67;17.73;;;;;;;-146.26;100.00;59860.63;4984080;28;20556;-71
2023/04/11 01:51:35;;;;;;;26.95;18.60;;;;;;;-146.26;100.00;59860.63;4985965;28;20124;-73
2023/04/11 01:54:00;;;;;;;22.88;18.55;;;;;;;-146.26;100.00;59860.63;4984036;28;20058;-74
2023/04/11 01:56:26;;;;;;;20.95;17.30;;;;;;;-146.26;100.00;59860.63;4984988;28;20038;-71
2023/04/11 01:58:51;;;;;;;25.60;19.27;;;;;;;-146.26;100.00;59860.63;4982286;28;20046;-71
2023/04/11 02:01:18;;;;;;;23.40;17.17;;;;;;;-146.26;100.00;59860.63;4987219;28;20113;-71
2023/04/11 02:03:44;;;;;;;23.95;16.65;;;;;;;-146.26;100.00;59860.63;4986283;28;20038;-71
2023/04/11 02:06:10;;;;;;;21.73;18.20;;;;;;;-146.26;100.00;59860.63;4986352;28;20141;-71
2023/04/11 02:08:35;;;;;;;29.80;17.63;;;;;;;-146.26;100.00;59860.63;4981533;28;20142;-71
2023/04/11 02:11:01;;;;;;;23.90;16.52;;;;;;;-146.26;100.00;59860.63;4986719;28;20085;-72
2023/04/11 02:13:26;;;;;;;24.33;16.60;;;;;;;-146.26;100.00;59860.63;4984631;28;20430;-71
2023/04/11 02:15:52;;;;;;;22.85;16.80;;;;;;;-146.26;100.00;59860.63;4987384;28;20113;-70
2023/04/11 02:18:17;;;;;;;25.02;16.67;;;;;;;-146.26;100.00;59860.63;4982540;28;20042;-71
2023/04/11 02:20:43;;;;;;;23.23;18.60;;;;;;;-146.26;100.00;59860.63;4983870;28;20133;-71
2023/04/11 02:23:08;;;;;;;23.60;17.35;;;;;;;-146.26;100.00;59860.63;4985513;28;20117;-70
2023/04/11 02:25:34;;;;;;;22.17;15.63;;;;;;;-146.26;100.00;59860.63;4985676;28;20038;-71
2023/04/11 02:27:59;;;;;;;21.27;16.77;;;;;;;-146.26;100.00;59860.63;4982660;28;20077;-70
2023/04/11 02:30:25;;;;;;;22.27;16.75;;;;;;;-146.26;100.00;59860.63;4983801;28;20507;-72
2023/04/11 02:32:50;;;;;;;28.02;17.10;;;;;;;-146.26;100.00;59860.63;4989446;28;20050;-73
2023/04/11 02:35:16;;;;;;;25.90;18.30;;;;;;;-146.26;100.00;59860.63;4989509;28;20442;-73
2023/04/11 02:37:42;;;;;;;24.10;16.70;;;;;;;-146.26;100.00;59860.63;4989818;28;20066;-74
2023/04/11 02:40:08;;;;;;;23.20;16.83;;;;;;;-146.26;100.00;59860.63;4995410;28;20030;-73
2023/04/11 02:42:34;;;;;;;22.90;17.65;;;;;;;-146.26;100.00;59860.63;4985878;28;20089;-71
2023/04/11 02:45:00;;;;;;;29.70;15.20;;;;;;;-146.26;100.00;59860.63;4985675;28;20469;-71
2023/04/11 02:47:26;;;;;;;25.58;16.48;;;;;;;-146.26;100.00;59860.63;4983211;28;20050;-72
2023/04/11 02:49:51;;;;;;;21.55;16.30;;;;;;;-146.26;100.00;59860.63;4990006;28;20051;-71
2023/04/11 02:52:18;;;;;;;23.83;15.60;;;;;;;-146.26;100.00;59860.63;4989657;28;20037;-72
2023/04/11 02:54:44;;;;;;;28.08;17.23;;;;;;;-146.26;100.00;59860.63;4987178;28;20089;-72
2023/04/11 02:57:11;;;;;;;22.73;16.73;;;;;;;-146.26;100.00;59860.63;4987117;28;20046;-72
2023/04/11 02:59:37;;;;;;;19.83;15.43;;;;;;;-146.26;100.00;59860.63;4988973;28;20046;-72
2023/04/11 03:02:03;;;;;;;20.38;14.50;;;;;;;-146.26;100.00;59860.63;4986189;28;20141;-72
2023/04/11 03:04:28;;;;;;;22.73;14.98;;;;;;;-146.26;100.00;59860.63;4986735;28;20110;-71
2023/04/11 03:06:54;;;;;;;16.75;12.80;;;;;;;-146.26;100.00;59860.63;4990034;28;20041;-70
2023/04/11 03:09:20;;;;;;;20.13;13.98;;;;;;;-146.26;100.00;59860.63;4983234;28;20094;-71
2023/04/11 03:11:45;;;;;;;26.52;13.43;;;;;;;-146.26;100.00;59860.63;4989275;28;20133;-70
2023/04/11 03:14:11;;;;;;;19.80;14.15;;;;;;;-146.26;100.00;59860.63;4983798;28;20581;-71
2023/04/11 03:16:36;;;;;;;19.80;14.13;;;;;;;-146.26;100.00;59860.63;4989400;28;20038;-71
2023/04/11 03:19:02;;;;;;;21.23;15.77;;;;;;;-146.26;100.00;59860.63;4988163;28;20450;-71
2023/04/11 03:21:27;;;;;;;18.73;14.90;;;;;;;-146.26;100.00;59860.63;4989475;28;20121;-71
2023/04/11 03:23:53;;;;;;;19.40;13.80;;;;;;;-146.26;100.00;59860.63;4987481;28;20034;-71
2023/04/11 03:26:19;;;;;;;18.05;13.85;;;;;;;-146.26;100.00;59860.63;4989795;28;20059;-72
2023/04/11 03:28:45;;;;;;;18.55;14.05;;;;;;;-146.26;100.00;59860.63;4988724;28;20145;-71
2023/04/11 03:31:11;;;;;;;18.83;13.65;;;;;;;-146.26;100.00;59860.63;4988738;28;20370;-71
2023/04/11 03:33:37;;;;;;;19.83;13.68;;;;;;;-146.26;100.00;59860.63;4980334;28;20045;-73
2023/04/11 03:36:04;;;;;;;17.35;12.73;;;;;;;-146.26;100.00;59860.63;4980400;28;20042;-71
2023/04/11 03:38:29;;;;;;;20.85;13.98;;;;;;;-146.26;100.00;59860.63;4982828;28;20042;-72
2023/04/11 03:40:55;;;;;;;18.88;13.68;;;;;;;-146.26;100.00;59860.63;4982406;28;20050;-71
2023/04/11 03:43:21;;;;;;;20.95;13.68;;;;;;;-146.26;100.00;59860.63;4987815;28;20734;-71
2023/04/11 03:45:47;;;;;;;21.25;13.85;;;;;;;-146.26;100.00;59860.63;4984868;28;20387;-71
2023/04/11 03:48:12;;;;;;;17.38;12.75;;;;;;;-146.26;100.00;59860.63;4986712;28;20050;-71
2023/04/11 03:50:38;;;;;;;15.00;11.25;;;;;;;-146.26;100.00;59860.63;4981822;28;20049;-71
2023/04/11 03:53:04;;;;;;;16.65;12.27;;;;;;;-146.26;100.00;59860.63;4987518;28;20081;-70
2023/04/11 03:55:30;;;;;;;16.83;11.57;;;;;;;-146.26;100.00;59860.63;4986188;28;20586;-70
2023/04/11 03:57:55;;;;;;;22.02;14.20;;;;;;;-146.26;100.00;59860.63;4989278;28;20149;-71
2023/04/11 04:00:21;;;;;;;13.63;11.40;;;;;;;-146.26;100.00;59860.63;4986813;28;20133;-71
2023/04/11 04:02:46;;;;;;;14.93;11.63;;;;;;;-146.26;100.00;59860.63;4987138;28;20056;-71
2023/04/11 04:05:12;;;;;;;14.75;12.27;;;;;;;-146.26;100.00;59860.63;4987236;28;20077;-71
2023/04/11 04:07:38;;;;;;;14.07;11.45;;;;;;;-146.26;100.00;59860.63;4989460;28;20541;-73
2023/04/11 04:10:04;;;;;;;17.13;12.77;;;;;;;-146.26;100.00;59860.63;4989388;28;20034;-71
2023/04/11 04:12:29;;;;;;;15.65;12.55;;;;;;;-146.26;100.00;59860.63;4987679;28;20070;-71
2023/04/11 04:14:54;;;;;;;14.10;11.32;;;;;;;-146.26;100.00;59860.63;4988497;28;20140;-71
2023/04/11 04:17:20;;;;;;;19.67;11.73;;;;;;;-146.26;100.00;59860.63;4988107;28;20042;-71
2023/04/11 04:19:45;;;;;;;14.27;10.30;;;;;;;-146.26;100.00;59860.63;4983505;28;20069;-71
2023/04/11 04:22:12;;;;;;;15.05;10.38;;;;;;;-146.26;100.00;59860.63;4988589;28;20037;-72
2023/04/11 04:24:38;;;;;;;15.07;11.10;;;;;;;-146.26;100.00;59860.63;4986744;28;20057;-72
2023/04/11 04:27:10;;;;;;;20.33;11.25;;;;;;;-146.26;100.00;59860.63;4987318;28;20095;-71
2023/04/11 04:29:45;;;;;;;21.92;11.27;;;;;;;-146.26;100.00;59860.63;4988021;28;20038;-71
2023/04/11 04:32:19;;;;;;;15.20;9.63;;;;;;;-146.26;100.00;59860.63;4988017;28;20046;-72
2023/04/11 04:34:48;;;;;;;13.90;10.10;;;;;;;-146.26;100.00;59860.63;4986810;28;20046;-72
2023/04/11 04:37:20;;;;;;;11.73;9.65;;;;;;;-146.26;100.00;59860.63;4988425;28;20709;-71
2023/04/11 04:39:54;;;;;;;11.45;9.60;;;;;;;-146.26;100.00;59860.63;4995161;28;20117;-72
2023/04/11 04:42:23;;;;;;;;;;;;;;;-146.26;100.00;59860.63;4982999;28;20050;-73
2023/04/11 04:44:50;;;;;;;16.60;10.65;;;;;;;-146.26;100.00;59860.63;4984331;28;19928;-72
2023/04/11 04:47:15;;;;;;;16.88;11.27;;;;;;;-146.26;100.00;59860.63;4985146;28;20184;-71
2023/04/11 04:49:42;;;;;;;19.63;11.77;;;;;;;-146.26;100.00;59860.63;4982680;28;20488;-70
2023/04/11 04:52:08;;;;;;;15.40;11.82;;;;;;;-146.26;100.00;59860.63;4985433;28;20053;-72
2023/04/11 04:54:33;;;;;;;16.70;11.90;;;;;;;-146.26;100.00;59860.63;4986216;28;20038;-74
2023/04/11 04:57:00;;;;;;;26.90;12.00;;;;;;;-146.26;100.00;59860.63;4985431;28;20047;-71
2023/04/11 04:59:25;;;;;;;16.92;11.88;;;;;;;-146.26;100.00;59860.63;4983191;28;20067;-70
2023/04/11 05:01:52;;;;;;;24.33;12.27;;;;;;;-146.26;100.00;59860.63;4982149;28;20054;-72
2023/04/11 05:04:18;;;;;;;16.55;12.32;;;;;;;-146.26;100.00;59860.63;4986500;28;20104;-72
2023/04/11 05:06:43;;;;;;;13.98;10.38;;;;;;;-146.26;100.00;59860.63;4982784;28;20540;-70
2023/04/11 05:09:09;;;;;;;20.63;11.93;;;;;;;-146.26;100.00;59860.63;4988569;28;20058;-71
2023/04/11 05:11:34;;;;;;;12.10;10.00;;;;;;;-146.26;100.00;59860.63;4986570;28;20514;-74
2023/04/11 05:14:00;;;;;;;17.15;9.88;;;;;;;-146.26;100.00;59860.63;4984059;28;20518;-70
2023/04/11 05:16:26;;;;;;;14.32;8.52;;;;;;;-146.26;100.00;59860.63;4983838;28;20034;-72
2023/04/11 05:18:51;;;;;;;14.32;10.43;;;;;;;-146.26;100.00;59860.63;4982857;28;20033;-72
2023/04/11 05:21:17;;;;;;;18.05;10.77;;;;;;;-146.26;100.00;59860.63;4986995;28;20573;-72
2023/04/11 05:23:42;;;;;;;12.43;9.30;;;;;;;-146.26;100.00;59860.63;4986774;28;20049;-70
2023/04/11 05:26:09;;;;;;;15.32;9.35;;;;;;;-146.26;100.00;59860.63;4986622;28;20088;-70
2023/04/11 05:28:35;;;;;;;14.45;10.32;;;;;;;-146.26;100.00;59860.63;4986307;28;20820;-72
2023/04/11 05:31:03;;;;;;;17.10;11.38;;;;;;;-146.26;100.00;59860.63;4978649;28;20042;-71
2023/04/11 05:33:29;;;;;;;15.02;9.50;;;;;;;-146.26;100.00;59860.63;4984998;28;20137;-70
2023/04/11 05:35:55;;;;;;;18.23;9.90;;;;;;;-146.26;100.00;59860.63;4978931;28;20105;-71
2023/04/11 05:38:20;;;;;;;15.05;10.38;;;;;;;-146.26;100.00;59860.63;4985050;28;20043;-71
2023/04/11 05:40:46;;;;;;;13.07;9.43;;;;;;;-146.26;100.00;59860.63;4986082;28;20038;-71
2023/04/11 05:43:13;;;;;;;18.98;10.10;;;;;;;-146.26;100.00;59860.63;4978069;28;20057;-71
2023/04/11 05:45:46;;;;;;;14.52;9.75;;;;;;;-146.26;100.00;59860.63;4977792;28;20038;-72
2023/04/11 05:48:13;;;;;;;18.65;10.27;;;;;;;-146.26;100.00;59860.63;4978911;28;20046;-72
2023/04/11 05:50:39;;;;;;;14.30;9.80;;;;;;;-146.26;100.00;59860.63;4986476;28;20046;-71
2023/04/11 05:53:05;;;;;;;14.18;9.32;;;;;;;-146.26;100.00;59860.63;4986760;28;20042;-71
2023/04/11 05:55:30;;;;;;;16.08;10.93;;;;;;;-146.26;100.00;59860.63;4984789;28;20034;-70
2023/04/11 05:57:56;;;;;;;13.77;10.95;;;;;;;-146.26;100.00;59860.63;4983747;28;20030;-71
2023/04/11 06:00:23;;;;;;;17.40;10.40;;;;;;;-146.26;100.00;59860.63;4984585;28;20129;-72
2023/04/11 06:02:51;;;;;;;15.80;11.48;;;;;;;-146.26;100.00;59860.63;4984948;28;20046;-73
2023/04/11 06:05:17;;;;;;;17.42;11.43;;;;;;;-146.26;100.00;59860.63;4984131;28;20534;-70
2023/04/11 06:07:43;;;;;;;16.15;9.32;;;;;;;-146.26;100.00;59860.63;4982545;28;20030;-71
2023/04/11 06:10:09;;;;;;;13.68;10.07;;;;;;;-146.26;100.00;59860.63;4987133;28;20455;-70
2023/04/11 06:12:35;;;;;;;14.27;10.65;;;;;;;-146.26;100.00;59860.63;4983008;28;20132;-71
2023/04/11 06:15:01;;;;;;;15.57;10.48;;;;;;;-146.26;100.00;59860.63;4991647;28;20114;-70
2023/04/11 06:17:27;;;;;;;12.45;9.38;;;;;;;-146.26;100.00;59860.63;4986153;28;20047;-71
2023/04/11 06:19:52;;;;;;;11.38;8.88;;;;;;;-146.26;100.00;59860.63;4985793;28;20046;-70
2023/04/11 06:22:18;;;;;;;12.98;9.15;;;;;;;-146.26;100.00;59860.63;4983354;28;20038;-71
2023/04/11 06:24:46;;;;;;;14.38;11.43;;;;;;;-146.26;100.00;59860.63;4986259;28;20057;-71
2023/04/11 06:27:12;;;;;;;13.05;9.70;;;;;;;-146.26;100.00;59860.63;4982017;28;20038;-71
2023/04/11 06:29:44;;;;;;;12.40;9.38;;;;;;;-146.26;100.00;59860.63;4986161;28;20057;-72
2023/04/11 06:32:12;;;;;;;17.65;9.02;;;;;;;-146.26;100.00;59860.63;4983250;28;20050;-72
2023/04/11 06:34:38;;;;;;;11.52;8.98;;;;;;;-146.26;100.00;59860.63;4985913;28;20118;-72
2023/04/11 06:37:05;;;;;;;11.38;9.13;;;;;;;-146.26;100.00;59860.63;4986462;28;20117;-71
2023/04/11 06:39:31;;;;;;;15.35;10.07;;;;;;;-146.26;100.00;59860.63;4985992;28;20069;-71
2023/04/11 06:41:57;;;;;;;12.32;9.13;;;;;;;-146.26;100.00;59860.63;4975799;28;20079;-71
2023/04/11 06:44:22;;;;;;;12.73;7.93;;;;;;;-146.26;100.00;59860.63;4984136;28;20062;-71
2023/04/11 06:46:49;;;;;;;10.57;8.30;;;;;;;-146.26;100.00;59860.63;4985378;28;20042;-70
2023/04/11 06:49:16;;;;;;;11.45;8.10;;;;;;;-146.26;100.00;59860.63;4982360;28;20038;-70
2023/04/11 06:51:42;;;;;;;10.32;7.75;;;;;;;-146.26;100.00;59860.63;4985619;28;20142;-72
2023/04/11 06:54:07;;;;;;;11.75;9.07;;;;;;;-146.26;100.00;59860.63;4979738;28;20550;-70
2023/04/11 06:56:33;;;;;;;15.30;9.43;;;;;;;-146.26;100.00;59860.63;4985415;28;20046;-69
2023/04/11 06:58:58;;;;;;;11.60;8.93;;;;;;;-146.26;100.00;59860.63;4988155;28;20046;-70
2023/04/11 07:01:34;;;;;;;11.25;7.97;;;;;;;-146.26;100.00;59860.63;4986305;28;20906;-71
2023/04/11 07:04:08;;;;;;;11.52;8.27;;;;;;;-146.26;100.00;59860.63;4986539;28;20077;-70
2023/04/11 07:06:34;;;;;;;9.70;7.97;;;;;;;-146.26;100.00;59860.63;4985735;28;20042;-70
2023/04/11 07:09:01;;;;;;;12.07;9.05;;;;;;;-146.26;100.00;59860.63;4982803;28;20058;-70
2023/04/11 07:11:27;;;;;;;11.15;8.73;;;;;;;-146.26;100.00;59860.63;4987239;28;20050;-71
2023/04/11 07:13:55;;;;;;;14.82;9.95;;;;;;;-146.26;100.00;59860.63;4983163;28;20050;-70
2023/04/11 07:16:20;;;;;;;15.35;8.70;;;;;;;-146.26;100.00;59860.63;4985439;28;20034;-70
2023/04/11 07:18:46;;;;;;;12.70;8.50;;;;;;;-146.26;100.00;59860.63;4987145;28;20099;-71
2023/04/11 07:21:13;;;;;;;12.40;7.50;;;;;;;-146.26;100.00;59860.63;4988962;28;20089;-73
2023/04/11 07:23:39;;;;;;;17.13;8.18;;;;;;;-146.26;100.00;59860.63;4988450;28;20054;-75
2023/04/11 07:26:07;;;;;;;21.30;7.47;;;;;;;-146.26;100.00;59860.63;4982700;28;20069;-72
2023/04/11 07:28:36;;;;;;;14.23;10.02;;;;;;;-146.26;100.00;59860.63;4985700;28;20058;-73
2023/04/11 07:31:02;;;;;;;13.93;8.70;;;;;;;-146.26;100.00;59860.63;4987859;28;20050;-72
2023/04/11 07:33:28;;;;;;;15.50;8.20;;;;;;;-146.26;100.00;59860.63;4988803;28;20050;-73
2023/04/11 07:35:54;;;;;;;12.48;8.38;;;;;;;-146.26;100.00;59860.63;4987298;28;20099;-71
2023/04/11 07:38:28;;;;;;;12.40;7.72;;;;;;;-146.26;100.00;59860.63;4978729;28;20038;-75
2023/04/11 07:40:57;;;;;;;23.00;8.45;;;;;;;-146.26;100.00;59860.63;4987090;28;20046;-72
2023/04/11 07:43:23;;;;;;;14.07;7.88;;;;;;;-146.26;100.00;59860.63;4983140;28;20120;-72
2023/04/11 07:45:48;;;;;;;26.27;9.63;;;;;;;-146.26;100.00;59860.63;4988625;28;20042;-72
2023/04/11 07:48:14;;;;;;;11.02;6.40;;;;;;;-146.26;100.00;59860.63;4988879;28;20038;-74
2023/04/11 07:50:40;;;;;;;9.95;6.80;;;;;;;-146.26;100.00;59860.63;4987905;28;20082;-73
2023/04/11 07:53:06;;;;;;;11.93;8.00;;;;;;;-146.26;100.00;59860.63;4987011;28;20046;-71
2023/04/11 07:55:32;;;;;;;15.15;8.10;;;;;;;-146.26;100.00;59860.63;4986963;28;20406;-72
2023/04/11 07:57:58;;;;;;;11.40;7.40;;;;;;;-146.26;100.00;59860.63;5001925;28;20538;-71
2023/04/11 08:00:24;;;;;;;43.08;33.38;;;;;;;-146.26;100.00;59860.63;4979214;28;20051;-72
2023/04/11 08:02:51;;;;;;;19.98;12.90;;;;;;;-146.26;100.00;59860.63;4981452;28;20097;-73
2023/04/11 08:05:17;;;;;;;14.32;7.60;;;;;;;-146.26;100.00;59860.63;4986097;28;20054;-72
2023/04/11 08:07:42;;;;;;;8.95;7.10;;;;;;;-146.26;100.00;59860.63;4987290;28;20037;-72
2023/04/11 08:10:08;;;;;;;8.65;5.93;;;;;;;-146.26;100.00;59860.63;4986888;28;20474;-72
2023/04/11 08:12:34;;;;;;;12.68;7.07;;;;;;;-146.26;100.00;59860.63;4985325;28;20430;-72
2023/04/11 08:14:59;;;;;;;9.23;6.63;;;;;;;-146.26;100.00;59860.63;4987015;28;20073;-72
2023/04/11 08:17:27;;;;;;;11.57;6.47;;;;;;;-146.26;100.00;59860.63;4984353;28;20105;-73
2023/04/11 08:19:54;;;;;;;19.70;5.78;;;;;;;-146.26;100.00;59860.63;4982400;28;20458;-71
2023/04/11 08:22:19;;;;;;;10.52;5.28;;;;;;;-146.26;100.00;59860.63;4985684;28;20080;-72
2023/04/11 08:24:45;;;;;;;11.02;5.28;;;;;;;-146.26;100.00;59860.63;4987105;28;20042;-73
2023/04/11 08:27:10;;;;;;;10.25;5.60;;;;;;;-146.26;100.00;59860.63;4983960;28;20074;-72
2023/04/11 08:29:36;;;;;;;16.58;6.03;;;;;;;-146.26;100.00;59860.63;4987170;28;20458;-74
2023/04/11 08:32:01;;;;;;;19.27;6.15;;;;;;;-146.26;100.00;59860.63;4985873;28;20081;-73
2023/04/11 08:34:27;;;;;;;8.40;5.53;;;;;;;-146.26;100.00;59860.63;4988080;28;20089;-73
2023/04/11 08:36:52;;;;;;;13.90;7.47;;;;;;;-146.26;100.00;59860.63;4987717;28;20037;-72
2023/04/11 08:39:18;;;;;;;19.00;5.90;;;;;;;-146.26;100.00;59860.63;4993109;28;20493;-72
2023/04/11 08:41:43;;;;;;;11.30;6.25;;;;;;;-146.26;100.00;59860.63;4985651;28;20130;-71
2023/04/11 08:44:13;;;;;;;15.20;7.63;;;;;;;-146.26;100.00;59860.63;4985115;28;20047;-73
2023/04/11 08:46:42;;;;;;;10.38;7.25;;;;;;;-146.26;100.00;59860.63;4986747;28;20129;-73
2023/04/11 08:49:07;;;;;;;22.25;6.85;;;;;;;-146.26;100.00;59860.63;4988012;28;20038;-74
2023/04/11 08:51:33;;;;;;;21.02;7.43;;;;;;;-146.26;100.00;59860.63;4987385;28;20041;-72
2023/04/11 08:54:04;;;;;;;28.70;6.38;;;;;;;-146.26;100.00;59860.63;4987149;28;20143;-72
2023/04/11 08:56:30;;;;;;;26.05;8.23;;;;;;;-146.26;100.00;59860.63;4987270;28;20045;-73
2023/04/11 08:58:56;;;;;;;10.20;6.22;;;;;;;-146.26;100.00;59860.63;4984027;28;20113;-71
2023/04/11 09:01:29;;;;;;;13.48;7.07;;;;;;;-146.26;100.00;59860.63;4985341;28;20061;-75
2023/04/11 09:03:55;;;;;;;13.30;6.30;;;;;;;-146.26;100.00;59860.63;4987384;28;20173;-72
2023/04/11 09:06:20;;;;;;;9.50;6.45;;;;;;;-146.26;100.00;59860.63;4983419;28;20030;-72
2023/04/11 09:08:46;;;;;;;13.80;6.32;;;;;;;-146.26;100.00;59860.63;4986653;28;20072;-71
2023/04/11 09:11:11;;;;;;;10.73;5.78;;;;;;;-146.26;100.00;59860.63;4987370;28;20841;-74
2023/04/11 09:13:37;;;;;;;11.57;5.97;;;;;;;-146.26;100.00;59860.63;4989786;28;20550;-74
2023/04/11 09:16:04;;;;;;;8.63;5.40;;;;;;;-146.26;100.00;59860.63;4988398;28;20105;-72
2023/04/11 09:18:32;;;;;;;14.98;6.03;;;;;;;-146.26;100.00;59860.63;4984749;28;20073;-72
2023/04/11 09:21:05;;;;;;;13.18;5.13;;;;;;;-146.26;100.00;59860.63;4985979;28;20471;-73
2023/04/11 09:23:31;;;;;;;13.00;6.00;;;;;;;-146.26;100.00;59860.63;4987011;28;20125;-74
2023/04/11 09:25:56;;;;;;;10.13;6.47;;;;;;;-146.26;100.00;59860.63;4984603;28;20149;-72
2023/04/11 09:28:24;;;;;;;11.27;5.75;;;;;;;-146.26;100.00;59860.63;4983039;28;20489;-72
2023/04/11 09:30:54;;;;;;;12.32;6.10;;;;;;;-146.26;100.00;59860.63;4982413;28;20137;-73
2023/04/11 09:33:27;;;;;;;11.45;6.15;;;;;;;-146.26;100.00;59860.63;4983619;28;20440;-73
2023/04/11 09:35:54;;;;;;;10.03;5.23;;;;;;;-146.26;100.00;59860.63;4985423;28;20065;-71
2023/04/11 09:38:46;;;;;;;15.20;5.50;;;;;;;-146.26;100.00;59860.63;4986046;28;20046;-71
2023/04/11 09:41:12;;;;;;;9.85;5.97;;;;;;;-146.26;100.00;59860.63;4979943;28;20108;-73
2023/04/11 09:43:52;;;;;;;8.20;5.28;;;;;;;-146.26;100.00;59860.63;4976700;28;20039;-72
2023/04/11 09:46:19;;;;;;;8.52;4.68;;;;;;;-146.26;100.00;59860.63;4979382;28;20117;-73
2023/04/11 09:48:46;;;;;;;7.57;4.30;;;;;;;-146.26;100.00;59860.63;4977596;28;20125;-72
2023/04/11 09:51:12;;;;;;;12.80;4.70;;;;;;;-146.26;100.00;59860.63;4979176;28;20101;-71
2023/04/11 09:53:37;;;;;;;6.78;4.35;;;;;;;-146.26;100.00;59860.63;4985482;28;20046;-71
2023/04/11 09:56:05;;;;;;;16.70;5.15;;;;;;;-146.26;100.00;59860.63;4977729;28;20105;-71
2023/04/11 09:58:32;;;;;;;13.13;6.93;;;;;;;-146.26;100.00;59860.63;4988291;28;20447;-71
2023/04/11 10:01:00;;;;;;;12.77;6.78;;;;;;;-146.26;100.00;59860.63;4979921;28;20068;-72
2023/04/11 10:03:26;;;;;;;13.05;5.68;;;;;;;-146.26;100.00;59860.63;4978522;28;20042;-72
2023/04/11 10:05:53;;;;;;;20.08;7.38;;;;;;;-146.26;100.00;59860.63;4982884;28;20049;-70
2023/04/11 10:08:29;;;;;;;11.32;6.25;;;;;;;-146.26;100.00;59860.63;4984972;28;20054;-70
2023/04/11 10:10:55;;;;;;;11.25;6.50;;;;;;;-146.26;100.00;59860.63;4981696;28;20050;-72
2023/04/11 10:13:41;;;;;;;12.32;6.90;;;;;;;-146.26;100.00;59860.63;4984156;28;20121;-73
2023/04/11 10:16:21;;;;;;;14.70;6.43;;;;;;;-146.26;100.00;59860.63;4981896;28;20448;-73
2023/04/11 10:18:49;;;;;;;9.32;6.47;;;;;;;-146.26;100.00;59860.63;4982951;28;20046;-71
2023/04/11 10:21:29;;;;;;;9.15;6.65;;;;;;;-146.26;100.00;59860.63;4984960;28;20133;-73
2023/04/11 10:24:10;;;;;;;10.13;5.90;;;;;;;-146.26;100.00;59860.63;4989720;28;20054;-72
2023/04/11 10:26:52;;;;;;;14.82;7.35;;;;;;;-146.26;100.00;59860.63;4986155;28;20142;-73
2023/04/11 10:29:32;;;;;;;10.60;7.38;;;;;;;-146.26;100.00;59860.63;4986074;28;20050;-72
2023/04/11 10:32:07;;;;;;;17.35;7.18;;;;;;;-146.26;100.00;59860.63;4977112;28;20418;-71
2023/04/11 10:34:34;;;;;;;12.38;6.60;;;;;;;-146.26;100.00;59860.63;4985607;28;20053;-72
2023/04/11 10:37:05;;;;;;;8.10;5.75;;;;;;;-146.26;100.00;59860.63;4985593;28;20459;-73
2023/04/11 10:39:49;;;;;;;15.43;7.18;;;;;;;-146.26;100.00;59860.63;4985072;28;20100;-71
2023/04/11 10:42:34;;;;;;;9.05;7.10;;;;;;;-146.26;100.00;59860.63;4986534;28;20082;-71
2023/04/11 10:45:16;;;;;;;8.90;7.63;;;;;;;-146.26;100.00;59860.63;4976078;28;20055;-69
2023/04/11 10:48:02;;;;;;;14.20;7.45;;;;;;;-146.26;100.00;59860.63;4974724;28;20043;-69
2023/04/11 10:50:36;;;;;;;11.80;8.13;;;;;;;-146.26;100.00;59860.63;5014441;28;20057;-72
2023/04/11 10:53:05;;;;;;;8.35;7.20;;;;;;;-146.26;100.00;59860.63;4989296;28;20061;-71
2023/04/11 10:55:45;;;;;;;14.57;9.57;;;;;;;-146.26;100.00;59860.63;4988996;28;20030;-75
2023/04/11 10:58:18;;;;;;;14.27;8.40;;;;;;;-146.26;100.00;59860.63;4985627;28;20520;-73
2023/04/11 11:00:47;;;;;;;9.60;6.97;;;;;;;-146.26;100.00;59860.63;4975672;28;20137;-73